Aeroporto :
LOGIN :

Iscrizione | Disclaimer

   EN    FR    IT 

 










Sommario :    VFR   VFR Marginale   IFR   IFR Intensivo   IFR Molto Intensivo
Visibilità : 
Base nubi : 
>= 8 km
>= 3000ft
5 / 8 km
1000 / 3000 ft
1500m / 5 km
500 / 1000 ft
800 / 1500m
200 / 500 ft
< 800m
< 200 ft
Simboli :   Temporali  Nebbia  Neve Forte  Precipitazioni Forti  Vento > 20 kt
SIGMETs :   Varie  Temporali  Ghiacco  Turbolenza  Onda orograficha  Ceneri Vulcaniche






- Altitudine del aeroporto : 46 ft
- Codice IATA : GPA


LGRX - Araxos

ULTIMO METAR :
  • 021250Z 27007KT 9999 FEW040 14/04 Q1013 RMK FEW180 BLU

METARs OBSOLETI :
  • 021220Z 27005KT 9999 FEW040 14/04 Q1013
  • 021150Z 28005KT 9999 FEW040 14/03 Q1013 RMK FEW180 BLU
  • 021120Z 27004KT 9999 FEW025 SCT040 14/04 Q1013
  • 021050Z 27004KT 9999 FEW025 SCT040 14/04 Q1014

TAF TAF LGRX
Valido dal 02 a 12 ore il 02 a 21 ore UTC


021100Z 0212/0221 32015KT 9999 SCT025
BECMG 0219/0221 06010KT SCT025 BKN080



MetMap, La meteo Aeronautica in un colpo d'occhio ! - Copyright ORBIFLY Dicembre 2007 - Disclaimer

ORBIFLY MET'MAP TEAM :

Programmazione e sviluppo : Alexandra Zaïnal
Concezione : Baudouin d'Aumeries
Aiuto per la programmazione : Marc-Olivier Méhu
Supporto tecnico e logistico : Manuel Goepfert
Aiuto per la traduzione : Arnaldo La Scala

Contatto : metmap@orbifly.com




FONTI E CREDITI :

   NOAA